sensor_id;sensor_type;location;lat;lon;timestamp;pressure;altitude;pressure_sealevel;temperature;humidity
69980;BME280;57318;56.232;43.944;2022-09-17T00:01:56;97330.00;;;11.34;93.08
69980;BME280;57318;56.232;43.944;2022-09-17T00:04:22;97327.81;;;11.37;93.19
69980;BME280;57318;56.232;43.944;2022-09-17T00:06:48;97330.13;;;11.41;93.27
69980;BME280;57318;56.232;43.944;2022-09-17T00:09:13;97331.94;;;11.40;93.37
69980;BME280;57318;56.232;43.944;2022-09-17T00:11:41;97338.72;;;11.43;93.23
69980;BME280;57318;56.232;43.944;2022-09-17T00:14:09;97340.03;;;11.47;93.49
69980;BME280;57318;56.232;43.944;2022-09-17T00:16:40;97340.50;;;11.50;93.54
69980;BME280;57318;56.232;43.944;2022-09-17T00:19:13;97332.88;;;11.47;93.56
69980;BME280;57318;56.232;43.944;2022-09-17T00:21:40;97338.69;;;11.51;93.56
69980;BME280;57318;56.232;43.944;2022-09-17T00:24:06;97322.53;;;11.52;93.64
69980;BME280;57318;56.232;43.944;2022-09-17T00:26:33;97325.38;;;11.51;93.74
69980;BME280;57318;56.232;43.944;2022-09-17T00:29:01;97334.00;;;11.53;93.96
69980;BME280;57318;56.232;43.944;2022-09-17T00:31:27;97333.63;;;11.56;93.97
69980;BME280;57318;56.232;43.944;2022-09-17T00:33:53;97317.69;;;11.56;94.06
69980;BME280;57318;56.232;43.944;2022-09-17T00:36:20;97323.63;;;11.58;94.09
69980;BME280;57318;56.232;43.944;2022-09-17T00:38:55;97315.66;;;11.58;94.29
69980;BME280;57318;56.232;43.944;2022-09-17T00:41:22;97324.28;;;11.60;94.27
69980;BME280;57318;56.232;43.944;2022-09-17T00:43:51;97320.59;;;11.61;94.18
69980;BME280;57318;56.232;43.944;2022-09-17T00:48:51;97320.25;;;11.64;94.30
69980;BME280;57318;56.232;43.944;2022-09-17T00:51:21;97320.25;;;11.64;94.38
69980;BME280;57318;56.232;43.944;2022-09-17T00:53:49;97321.06;;;11.65;94.38
69980;BME280;57318;56.232;43.944;2022-09-17T00:58:48;97323.19;;;11.69;94.71
69980;BME280;57318;56.232;43.944;2022-09-17T01:01:15;97315.19;;;11.69;94.77
69980;BME280;57318;56.232;43.944;2022-09-17T01:03:41;97315.00;;;11.71;94.54
69980;BME280;57318;56.232;43.944;2022-09-17T01:08:58;97308.06;;;11.70;94.84
69980;BME280;57318;56.232;43.944;2022-09-17T01:12:12;97311.34;;;11.72;94.70
69980;BME280;57318;56.232;43.944;2022-09-17T01:17:45;97310.19;;;11.74;94.86
69980;BME280;57318;56.232;43.944;2022-09-17T01:32:04;97304.13;;;11.81;94.96
69980;BME280;57318;56.232;43.944;2022-09-17T01:37:47;97311.94;;;11.82;95.13
69980;BME280;57318;56.232;43.944;2022-09-17T01:40:24;97311.06;;;11.82;95.29
69980;BME280;57318;56.232;43.944;2022-09-17T01:42:58;97309.91;;;11.84;95.42
69980;BME280;57318;56.232;43.944;2022-09-17T01:45:51;97309.91;;;11.84;95.24
69980;BME280;57318;56.232;43.944;2022-09-17T01:48:25;97321.84;;;11.88;95.33
69980;BME280;57318;56.232;43.944;2022-09-17T01:50:58;97317.97;;;11.91;95.46
69980;BME280;57318;56.232;43.944;2022-09-17T01:53:33;97325.78;;;11.93;95.46
69980;BME280;57318;56.232;43.944;2022-09-17T01:56:03;97326.63;;;11.93;95.32
69980;BME280;57318;56.232;43.944;2022-09-17T01:58:37;97317.44;;;11.96;95.52
69980;BME280;57318;56.232;43.944;2022-09-17T02:01:08;97319.13;;;11.97;95.78
69980;BME280;57318;56.232;43.944;2022-09-17T02:03:51;97332.22;;;11.98;95.58
69980;BME280;57318;56.232;43.944;2022-09-17T02:06:23;97329.22;;;12.01;95.66
69980;BME280;57318;56.232;43.944;2022-09-17T02:08:58;97334.34;;;12.03;95.79
69980;BME280;57318;56.232;43.944;2022-09-17T02:11:25;97323.53;;;12.04;95.76
69980;BME280;57318;56.232;43.944;2022-09-17T02:14:06;97318.00;;;12.06;95.59
69980;BME280;57318;56.232;43.944;2022-09-17T02:16:36;97326.44;;;12.09;95.63
69980;BME280;57318;56.232;43.944;2022-09-17T02:19:29;97331.59;;;12.11;95.67
69980;BME280;57318;56.232;43.944;2022-09-17T02:24:25;97328.56;;;12.14;95.63
69980;BME280;57318;56.232;43.944;2022-09-17T02:27:20;97342.69;;;12.15;95.71
69980;BME280;57318;56.232;43.944;2022-09-17T02:29:49;97343.53;;;12.15;95.90
69980;BME280;57318;56.232;43.944;2022-09-17T02:32:15;97339.84;;;12.16;95.74
69980;BME280;57318;56.232;43.944;2022-09-17T02:34:40;97344.16;;;12.17;95.67
69980;BME280;57318;56.232;43.944;2022-09-17T02:37:07;97344.97;;;12.18;95.80
69980;BME280;57318;56.232;43.944;2022-09-17T02:39:33;97351.78;;;12.20;95.89
69980;BME280;57318;56.232;43.944;2022-09-17T02:47:34;97356.56;;;12.25;95.98
69980;BME280;57318;56.232;43.944;2022-09-17T02:57:59;97348.38;;;12.26;95.67
69980;BME280;57318;56.232;43.944;2022-09-17T03:00:25;97343.69;;;12.28;95.86
69980;BME280;57318;56.232;43.944;2022-09-17T03:02:57;97344.69;;;12.27;95.84
69980;BME280;57318;56.232;43.944;2022-09-17T03:05:25;97353.34;;;12.30;95.77
69980;BME280;57318;56.232;43.944;2022-09-17T03:07:54;97352.31;;;12.31;95.75
69980;BME280;57318;56.232;43.944;2022-09-17T03:10:21;97349.66;;;12.31;95.77
69980;BME280;57318;56.232;43.944;2022-09-17T03:12:47;97350.50;;;12.31;95.91
69980;BME280;57318;56.232;43.944;2022-09-17T03:15:13;97353.78;;;12.33;95.79
69980;BME280;57318;56.232;43.944;2022-09-17T03:17:38;97355.63;;;12.33;95.60
69980;BME280;57318;56.232;43.944;2022-09-17T03:20:04;97359.94;;;12.34;95.75
69980;BME280;57318;56.232;43.944;2022-09-17T03:22:30;97362.59;;;12.34;95.61
69980;BME280;57318;56.232;43.944;2022-09-17T03:24:56;97373.25;;;12.34;95.59
69980;BME280;57318;56.232;43.944;2022-09-17T03:27:22;97367.09;;;12.33;95.64
69980;BME280;57318;56.232;43.944;2022-09-17T03:29:47;97369.94;;;12.32;95.58
69980;BME280;57318;56.232;43.944;2022-09-17T03:32:13;97363.63;;;12.33;95.44
69980;BME280;57318;56.232;43.944;2022-09-17T03:34:38;97363.63;;;12.33;95.11
69980;BME280;57318;56.232;43.944;2022-09-17T03:37:04;97369.75;;;12.33;95.18
69980;BME280;57318;56.232;43.944;2022-09-17T03:39:30;97376.75;;;12.34;95.05
69980;BME280;57318;56.232;43.944;2022-09-17T03:41:55;97375.72;;;12.35;95.05
69980;BME280;57318;56.232;43.944;2022-09-17T03:44:21;97388.22;;;12.35;94.97
69980;BME280;57318;56.232;43.944;2022-09-17T03:46:48;97387.59;;;12.33;94.95
69980;BME280;57318;56.232;43.944;2022-09-17T03:49:13;97394.09;;;12.30;94.91
69980;BME280;57318;56.232;43.944;2022-09-17T03:51:39;97396.13;;;12.28;94.65
69980;BME280;57318;56.232;43.944;2022-09-17T03:54:04;97381.97;;;12.27;94.77
69980;BME280;57318;56.232;43.944;2022-09-17T03:56:30;97390.63;;;12.30;94.99
69980;BME280;57318;56.232;43.944;2022-09-17T03:58:59;97388.78;;;12.30;94.73
69980;BME280;57318;56.232;43.944;2022-09-17T04:01:26;97384.25;;;12.31;94.86
69980;BME280;57318;56.232;43.944;2022-09-17T04:03:52;97387.97;;;12.30;94.93
69980;BME280;57318;56.232;43.944;2022-09-17T04:06:18;97385.28;;;12.30;94.78
69980;BME280;57318;56.232;43.944;2022-09-17T04:08:43;97386.28;;;12.28;94.88
69980;BME280;57318;56.232;43.944;2022-09-17T04:11:09;97395.75;;;12.31;94.80
69980;BME280;57318;56.232;43.944;2022-09-17T04:13:35;97396.56;;;12.32;94.55
69980;BME280;57318;56.232;43.944;2022-09-17T04:16:01;97399.88;;;12.34;94.36
69980;BME280;57318;56.232;43.944;2022-09-17T04:18:27;97394.53;;;12.34;94.39
69980;BME280;57318;56.232;43.944;2022-09-17T04:20:53;97400.72;;;12.34;94.13
69980;BME280;57318;56.232;43.944;2022-09-17T04:23:19;97407.03;;;12.33;94.09
69980;BME280;57318;56.232;43.944;2022-09-17T04:25:45;97409.25;;;12.30;94.02
69980;BME280;57318;56.232;43.944;2022-09-17T04:28:11;97410.25;;;12.28;93.90
69980;BME280;57318;56.232;43.944;2022-09-17T04:30:37;97411.25;;;12.27;93.67
69980;BME280;57318;56.232;43.944;2022-09-17T04:33:03;97422.94;;;12.26;93.58
69980;BME280;57318;56.232;43.944;2022-09-17T04:35:29;97424.75;;;12.26;93.47
69980;BME280;57318;56.232;43.944;2022-09-17T04:37:56;97427.59;;;12.24;93.21
69980;BME280;57318;56.232;43.944;2022-09-17T04:40:22;97432.47;;;12.21;93.07
69980;BME280;57318;56.232;43.944;2022-09-17T04:42:54;97431.66;;;12.20;93.04
69980;BME280;57318;56.232;43.944;2022-09-17T04:45:21;97434.13;;;12.22;92.84
69980;BME280;57318;56.232;43.944;2022-09-17T04:47:47;97429.09;;;12.27;92.53
69980;BME280;57318;56.232;43.944;2022-09-17T04:50:19;97442.84;;;12.31;92.72
69980;BME280;57318;56.232;43.944;2022-09-17T04:52:45;97443.03;;;12.29;92.26
69980;BME280;57318;56.232;43.944;2022-09-17T04:55:12;97447.34;;;12.30;92.17
69980;BME280;57318;56.232;43.944;2022-09-17T04:57:38;97449.47;;;12.35;92.05
69980;BME280;57318;56.232;43.944;2022-09-17T05:00:05;97440.75;;;12.41;91.92
69980;BME280;57318;56.232;43.944;2022-09-17T05:02:33;97447.56;;;12.43;91.92
69980;BME280;57318;56.232;43.944;2022-09-17T05:04:58;97449.84;;;12.47;91.63
69980;BME280;57318;56.232;43.944;2022-09-17T05:07:24;97453.34;;;12.47;91.40
69980;BME280;57318;56.232;43.944;2022-09-17T05:09:49;97466.66;;;12.47;91.09
69980;BME280;57318;56.232;43.944;2022-09-17T05:12:15;97460.50;;;12.47;90.92
69980;BME280;57318;56.232;43.944;2022-09-17T05:14:40;97464.81;;;12.48;90.91
69980;BME280;57318;56.232;43.944;2022-09-17T05:17:06;97465.25;;;12.51;91.13
69980;BME280;57318;56.232;43.944;2022-09-17T05:19:32;97468.22;;;12.56;90.91
69980;BME280;57318;56.232;43.944;2022-09-17T05:21:57;97468.84;;;12.58;90.85
69980;BME280;57318;56.232;43.944;2022-09-17T05:24:23;97476.47;;;12.61;90.64
69980;BME280;57318;56.232;43.944;2022-09-17T05:26:48;97475.00;;;12.59;90.41
69980;BME280;57318;56.232;43.944;2022-09-17T05:29:14;97483.91;;;12.66;90.55
69980;BME280;57318;56.232;43.944;2022-09-17T05:31:40;97478.59;;;12.66;90.44
69980;BME280;57318;56.232;43.944;2022-09-17T05:34:06;97485.81;;;12.87;90.02
69980;BME280;57318;56.232;43.944;2022-09-17T05:36:31;97485.41;;;13.20;89.04
69980;BME280;57318;56.232;43.944;2022-09-17T05:38:57;97487.00;;;13.51;88.30
69980;BME280;57318;56.232;43.944;2022-09-17T05:41:22;97500.22;;;13.59;87.75
69980;BME280;57318;56.232;43.944;2022-09-17T05:43:48;97514.53;;;13.95;85.30
69980;BME280;57318;56.232;43.944;2022-09-17T05:46:13;97520.94;;;14.00;84.18
69980;BME280;57318;56.232;43.944;2022-09-17T05:48:39;97518.66;;;13.97;83.03
69980;BME280;57318;56.232;43.944;2022-09-17T05:51:05;97520.13;;;13.78;83.44
69980;BME280;57318;56.232;43.944;2022-09-17T05:53:30;97524.78;;;13.69;83.64
69980;BME280;57318;56.232;43.944;2022-09-17T05:55:57;97528.00;;;13.65;83.92
69980;BME280;57318;56.232;43.944;2022-09-17T05:58:23;97524.78;;;13.69;83.22
69980;BME280;57318;56.232;43.944;2022-09-17T06:00:48;97529.41;;;13.82;82.88
69980;BME280;57318;56.232;43.944;2022-09-17T06:03:16;97536.41;;;14.33;82.07
69980;BME280;57318;56.232;43.944;2022-09-17T06:05:49;97532.00;;;14.19;81.05
69980;BME280;57318;56.232;43.944;2022-09-17T06:08:16;97548.19;;;14.39;81.66
69980;BME280;57318;56.232;43.944;2022-09-17T06:10:42;97557.81;;;14.90;76.86
69980;BME280;57318;56.232;43.944;2022-09-17T06:13:07;97555.34;;;15.30;75.61
69980;BME280;57318;56.232;43.944;2022-09-17T06:15:33;97560.31;;;15.40;74.59
69980;BME280;57318;56.232;43.944;2022-09-17T06:17:58;97564.22;;;16.12;70.93
69980;BME280;57318;56.232;43.944;2022-09-17T06:20:24;97572.44;;;17.63;67.27
69980;BME280;57318;56.232;43.944;2022-09-17T06:22:55;97581.63;;;17.87;62.29
69980;BME280;57318;56.232;43.944;2022-09-17T06:25:21;97588.22;;;19.05;61.05
69980;BME280;57318;56.232;43.944;2022-09-17T06:27:48;97578.44;;;18.35;60.43
69980;BME280;57318;56.232;43.944;2022-09-17T06:30:14;97589.50;;;17.89;61.80
69980;BME280;57318;56.232;43.944;2022-09-17T06:32:39;97595.97;;;18.95;59.34
69980;BME280;57318;56.232;43.944;2022-09-17T06:35:05;97603.34;;;18.24;60.35
69980;BME280;57318;56.232;43.944;2022-09-17T06:37:32;97594.41;;;17.53;61.54
69980;BME280;57318;56.232;43.944;2022-09-17T06:39:58;97606.31;;;16.99;63.38
69980;BME280;57318;56.232;43.944;2022-09-17T06:42:27;97600.44;;;17.42;63.96
69980;BME280;57318;56.232;43.944;2022-09-17T06:44:53;97617.25;;;17.10;61.92
69980;BME280;57318;56.232;43.944;2022-09-17T06:47:19;97607.75;;;16.41;61.81
69980;BME280;57318;56.232;43.944;2022-09-17T06:49:45;97623.56;;;17.95;57.72
69980;BME280;57318;56.232;43.944;2022-09-17T06:52:10;97623.06;;;17.66;57.82
69980;BME280;57318;56.232;43.944;2022-09-17T06:54:36;97623.03;;;16.94;59.44
69980;BME280;57318;56.232;43.944;2022-09-17T06:57:02;97618.06;;;16.57;62.06
69980;BME280;57318;56.232;43.944;2022-09-17T06:59:27;97629.41;;;16.59;63.67
69980;BME280;57318;56.232;43.944;2022-09-17T07:01:53;97630.53;;;19.17;55.99
69980;BME280;57318;56.232;43.944;2022-09-17T07:04:19;97628.47;;;18.93;57.21
69980;BME280;57318;56.232;43.944;2022-09-17T07:06:45;97646.66;;;19.79;55.04
69980;BME280;57318;56.232;43.944;2022-09-17T07:09:11;97647.31;;;19.56;54.36
69980;BME280;57318;56.232;43.944;2022-09-17T07:11:37;97650.00;;;19.37;52.62
69980;BME280;57318;56.232;43.944;2022-09-17T07:14:04;97653.16;;;18.58;53.93
69980;BME280;57318;56.232;43.944;2022-09-17T07:16:29;97656.91;;;20.19;49.67
69980;BME280;57318;56.232;43.944;2022-09-17T07:19:03;97655.78;;;22.16;45.92
69980;BME280;57318;56.232;43.944;2022-09-17T07:21:29;97672.25;;;22.89;43.56
69980;BME280;57318;56.232;43.944;2022-09-17T07:23:54;97656.00;;;23.23;42.73
69980;BME280;57318;56.232;43.944;2022-09-17T07:26:20;97658.44;;;23.07;43.49
69980;BME280;57318;56.232;43.944;2022-09-17T07:28:45;97665.91;;;23.34;42.70
69980;BME280;57318;56.232;43.944;2022-09-17T07:31:12;97665.56;;;23.87;41.81
69980;BME280;57318;56.232;43.944;2022-09-17T07:33:38;97666.66;;;22.79;45.80
69980;BME280;57318;56.232;43.944;2022-09-17T07:36:07;97680.56;;;24.98;38.17
69980;BME280;57318;56.232;43.944;2022-09-17T07:38:33;97676.50;;;26.75;35.47
69980;BME280;57318;56.232;43.944;2022-09-17T07:41:03;97673.03;;;26.01;36.71
69980;BME280;57318;56.232;43.944;2022-09-17T07:43:31;97678.94;;;27.28;35.11
69980;BME280;57318;56.232;43.944;2022-09-17T07:45:58;97681.41;;;28.26;32.69
69980;BME280;57318;56.232;43.944;2022-09-17T07:48:25;97683.84;;;28.77;31.95
69980;BME280;57318;56.232;43.944;2022-09-17T07:50:57;97680.31;;;28.27;34.66
69980;BME280;57318;56.232;43.944;2022-09-17T07:53:49;97683.75;;;27.78;35.27
69980;BME280;57318;56.232;43.944;2022-09-17T07:56:15;97682.22;;;26.69;33.94
69980;BME280;57318;56.232;43.944;2022-09-17T07:58:41;97683.44;;;25.62;34.53
69980;BME280;57318;56.232;43.944;2022-09-17T08:01:08;97682.63;;;24.86;35.47
69980;BME280;57318;56.232;43.944;2022-09-17T08:03:35;97685.16;;;24.38;36.69
69980;BME280;57318;56.232;43.944;2022-09-17T08:06:12;97694.91;;;23.90;37.67
69980;BME280;57318;56.232;43.944;2022-09-17T08:08:38;97690.00;;;23.14;37.50
69980;BME280;57318;56.232;43.944;2022-09-17T08:13:30;97685.91;;;22.08;39.79
69980;BME280;57318;56.232;43.944;2022-09-17T08:16:04;97692.72;;;21.46;40.54
69980;BME280;57318;56.232;43.944;2022-09-17T08:18:30;97699.59;;;20.83;41.49
69980;BME280;57318;56.232;43.944;2022-09-17T08:20:57;97697.38;;;20.91;42.19
69980;BME280;57318;56.232;43.944;2022-09-17T08:23:24;97706.78;;;21.01;41.72
69980;BME280;57318;56.232;43.944;2022-09-17T08:25:52;97706.53;;;20.90;41.71
69980;BME280;57318;56.232;43.944;2022-09-17T08:28:17;97709.22;;;22.09;39.66
69980;BME280;57318;56.232;43.944;2022-09-17T08:30:43;97715.59;;;23.96;37.10
69980;BME280;57318;56.232;43.944;2022-09-17T08:33:10;97719.22;;;23.85;36.22
69980;BME280;57318;56.232;43.944;2022-09-17T08:35:38;97707.50;;;24.01;36.54
69980;BME280;57318;56.232;43.944;2022-09-17T08:38:05;97703.78;;;23.46;37.30
69980;BME280;57318;56.232;43.944;2022-09-17T08:40:40;97707.19;;;22.74;39.49
69980;BME280;57318;56.232;43.944;2022-09-17T08:43:14;97706.84;;;22.53;39.89
69980;BME280;57318;56.232;43.944;2022-09-17T08:45:41;97718.88;;;23.98;37.22
69980;BME280;57318;56.232;43.944;2022-09-17T08:48:10;97720.81;;;24.25;36.62
69980;BME280;57318;56.232;43.944;2022-09-17T08:50:38;97718.41;;;23.28;37.38
69980;BME280;57318;56.232;43.944;2022-09-17T08:56:07;97720.22;;;24.45;34.81
69980;BME280;57318;56.232;43.944;2022-09-17T09:06:27;97734.00;;;26.89;30.03
69980;BME280;57318;56.232;43.944;2022-09-17T09:09:24;97730.81;;;28.30;27.54
69980;BME280;57318;56.232;43.944;2022-09-17T09:12:00;97734.78;;;28.63;26.94
69980;BME280;57318;56.232;43.944;2022-09-17T09:14:35;97741.09;;;27.21;28.00
69980;BME280;57318;56.232;43.944;2022-09-17T09:17:07;97739.94;;;28.10;27.24
69980;BME280;57318;56.232;43.944;2022-09-17T09:19:41;97758.44;;;28.78;26.33
69980;BME280;57318;56.232;43.944;2022-09-17T09:27:32;97766.31;;;28.85;25.45
69980;BME280;57318;56.232;43.944;2022-09-17T09:30:13;97772.50;;;28.51;25.73
69980;BME280;57318;56.232;43.944;2022-09-17T09:32:49;97782.06;;;29.08;24.74
69980;BME280;57318;56.232;43.944;2022-09-17T09:35:22;97769.56;;;29.31;24.68
69980;BME280;57318;56.232;43.944;2022-09-17T09:40:57;97785.28;;;30.76;23.17
69980;BME280;57318;56.232;43.944;2022-09-17T09:52:21;97789.09;;;27.79;25.99
69980;BME280;57318;56.232;43.944;2022-09-17T09:57:03;97790.78;;;24.62;29.73
69980;BME280;57318;56.232;43.944;2022-09-17T09:59:32;97783.06;;;26.89;26.11
69980;BME280;57318;56.232;43.944;2022-09-17T10:01:58;97781.72;;;27.79;25.63
69980;BME280;57318;56.232;43.944;2022-09-17T10:04:26;97785.16;;;29.65;23.32
69980;BME280;57318;56.232;43.944;2022-09-17T10:07:04;97801.34;;;28.12;24.88
69980;BME280;57318;56.232;43.944;2022-09-17T10:09:34;97789.63;;;28.01;24.90
69980;BME280;57318;56.232;43.944;2022-09-17T10:14:40;97802.13;;;26.16;28.03
69980;BME280;57318;56.232;43.944;2022-09-17T10:17:18;97801.41;;;25.23;28.14
69980;BME280;57318;56.232;43.944;2022-09-17T10:22:40;97794.41;;;24.50;28.98
69980;BME280;57318;56.232;43.944;2022-09-17T10:25:30;97793.13;;;22.78;32.26
69980;BME280;57318;56.232;43.944;2022-09-17T10:27:59;97801.63;;;21.47;34.80
69980;BME280;57318;56.232;43.944;2022-09-17T10:30:26;97813.94;;;20.88;36.43
69980;BME280;57318;56.232;43.944;2022-09-17T10:33:20;97824.19;;;23.84;31.74
69980;BME280;57318;56.232;43.944;2022-09-17T10:35:55;97824.84;;;26.37;27.02
69980;BME280;57318;56.232;43.944;2022-09-17T10:38:30;97816.63;;;24.47;28.33
69980;BME280;57318;56.232;43.944;2022-09-17T10:41:28;97826.72;;;22.65;31.49
69980;BME280;57318;56.232;43.944;2022-09-17T10:43:53;97823.00;;;22.83;31.65
69980;BME280;57318;56.232;43.944;2022-09-17T10:46:29;97826.47;;;24.54;29.21
69980;BME280;57318;56.232;43.944;2022-09-17T10:49:09;97853.38;;;26.24;26.41
69980;BME280;57318;56.232;43.944;2022-09-17T10:51:35;97841.47;;;27.29;24.77
69980;BME280;57318;56.232;43.944;2022-09-17T10:56:56;97843.13;;;28.88;22.84
69980;BME280;57318;56.232;43.944;2022-09-17T10:59:52;97833.91;;;29.24;22.73
69980;BME280;57318;56.232;43.944;2022-09-17T11:08:38;97843.25;;;30.88;20.66
69980;BME280;57318;56.232;43.944;2022-09-17T11:11:06;97847.81;;;30.98;21.21
69980;BME280;57318;56.232;43.944;2022-09-17T11:13:39;97834.75;;;30.47;21.41
69980;BME280;57318;56.232;43.944;2022-09-17T11:16:13;97840.13;;;29.69;22.76
69980;BME280;57318;56.232;43.944;2022-09-17T11:18:44;97825.94;;;27.55;24.35
69980;BME280;57318;56.232;43.944;2022-09-17T11:21:38;97834.84;;;26.89;24.86
69980;BME280;57318;56.232;43.944;2022-09-17T11:24:38;97836.91;;;25.11;27.98
69980;BME280;57318;56.232;43.944;2022-09-17T11:30:23;97833.25;;;22.81;30.23
69980;BME280;57318;56.232;43.944;2022-09-17T11:33:23;97837.28;;;21.67;31.89
69980;BME280;57318;56.232;43.944;2022-09-17T11:36:02;97846.81;;;21.27;32.30
69980;BME280;57318;56.232;43.944;2022-09-17T11:38:42;97844.69;;;23.29;29.97
69980;BME280;57318;56.232;43.944;2022-09-17T11:43:42;97841.16;;;24.13;28.80
69980;BME280;57318;56.232;43.944;2022-09-17T11:46:24;97851.28;;;26.41;25.86
69980;BME280;57318;56.232;43.944;2022-09-17T11:49:01;97845.44;;;25.47;26.81
69980;BME280;57318;56.232;43.944;2022-09-17T11:51:36;97858.09;;;27.28;24.76
69980;BME280;57318;56.232;43.944;2022-09-17T11:56:53;97843.84;;;26.90;25.41
69980;BME280;57318;56.232;43.944;2022-09-17T11:59:31;97835.66;;;25.51;26.77
69980;BME280;57318;56.232;43.944;2022-09-17T12:04:48;97847.72;;;26.41;25.90
69980;BME280;57318;56.232;43.944;2022-09-17T12:07:29;97839.63;;;26.03;26.26
69980;BME280;57318;56.232;43.944;2022-09-17T12:10:02;97849.16;;;27.53;24.64
69980;BME280;57318;56.232;43.944;2022-09-17T12:12:33;97849.91;;;28.25;23.15
69980;BME280;57318;56.232;43.944;2022-09-17T12:15:11;97859.31;;;28.79;22.62
69980;BME280;57318;56.232;43.944;2022-09-17T12:20:34;97860.38;;;29.68;21.84
69980;BME280;57318;56.232;43.944;2022-09-17T12:23:09;97874.84;;;30.08;21.62
69980;BME280;57318;56.232;43.944;2022-09-17T12:26:07;97864.72;;;30.09;21.36
69980;BME280;57318;56.232;43.944;2022-09-17T12:28:37;97870.75;;;29.71;21.58
69980;BME280;57318;56.232;43.944;2022-09-17T12:31:21;97870.59;;;27.03;24.58
69980;BME280;57318;56.232;43.944;2022-09-17T12:33:54;97868.66;;;24.39;28.39
69980;BME280;57318;56.232;43.944;2022-09-17T12:59:12;97895.19;;;18.79;39.31
69980;BME280;57318;56.232;43.944;2022-09-17T13:02:01;97887.13;;;20.43;36.56
69980;BME280;57318;56.232;43.944;2022-09-17T13:07:06;97909.00;;;23.34;31.80
69980;BME280;57318;56.232;43.944;2022-09-17T13:12:30;97896.66;;;22.09;33.47
69980;BME280;57318;56.232;43.944;2022-09-17T13:26:04;97919.66;;;26.07;27.46
69980;BME280;57318;56.232;43.944;2022-09-17T13:28:41;97913.91;;;26.41;26.97
69980;BME280;57318;56.232;43.944;2022-09-17T13:31:07;97918.75;;;26.34;26.93
69980;BME280;57318;56.232;43.944;2022-09-17T13:33:53;97930.84;;;27.01;26.36
69980;BME280;57318;56.232;43.944;2022-09-17T13:38:59;97929.75;;;26.50;26.51
69980;BME280;57318;56.232;43.944;2022-09-17T13:41:25;97921.06;;;25.50;27.69
69980;BME280;57318;56.232;43.944;2022-09-17T13:43:53;97919.38;;;24.17;29.86
69980;BME280;57318;56.232;43.944;2022-09-17T13:46:24;97928.09;;;23.56;30.93
69980;BME280;57318;56.232;43.944;2022-09-17T13:48:56;97941.50;;;24.47;29.67
69980;BME280;57318;56.232;43.944;2022-09-17T13:53:59;97947.84;;;23.68;30.82
69980;BME280;57318;56.232;43.944;2022-09-17T13:56:42;97947.84;;;22.58;32.42
69980;BME280;57318;56.232;43.944;2022-09-17T14:07:30;97960.06;;;22.13;33.14
69980;BME280;57318;56.232;43.944;2022-09-17T14:15:07;97966.53;;;22.12;31.44
69980;BME280;57318;56.232;43.944;2022-09-17T14:17:51;97963.31;;;20.82;33.83
69980;BME280;57318;56.232;43.944;2022-09-17T14:20:20;97960.84;;;19.93;35.25
69980;BME280;57318;56.232;43.944;2022-09-17T14:22:58;97966.91;;;19.11;37.64
69980;BME280;57318;56.232;43.944;2022-09-17T14:25:46;97962.31;;;18.47;39.21
69980;BME280;57318;56.232;43.944;2022-09-17T14:28:46;97961.13;;;17.89;40.96
69980;BME280;57318;56.232;43.944;2022-09-17T14:31:21;97960.63;;;17.39;42.35
69980;BME280;57318;56.232;43.944;2022-09-17T14:33:49;97966.72;;;17.06;43.00
69980;BME280;57318;56.232;43.944;2022-09-17T14:36:20;97968.59;;;16.77;43.78
69980;BME280;57318;56.232;43.944;2022-09-17T14:38:49;97963.09;;;16.50;44.63
69980;BME280;57318;56.232;43.944;2022-09-17T14:41:20;97968.78;;;16.34;45.27
69980;BME280;57318;56.232;43.944;2022-09-17T14:46:31;97969.94;;;15.96;46.37
69980;BME280;57318;56.232;43.944;2022-09-17T14:51:42;97966.22;;;15.76;47.08
69980;BME280;57318;56.232;43.944;2022-09-17T14:54:16;97968.66;;;15.70;47.79
69980;BME280;57318;56.232;43.944;2022-09-17T14:56:59;97970.38;;;15.57;47.79
69980;BME280;57318;56.232;43.944;2022-09-17T14:59:48;97976.44;;;15.44;48.43
69980;BME280;57318;56.232;43.944;2022-09-17T15:04:57;97980.47;;;15.18;49.68
69980;BME280;57318;56.232;43.944;2022-09-17T15:07:23;97989.72;;;15.01;49.75
69980;BME280;57318;56.232;43.944;2022-09-17T15:09:49;97994.44;;;14.84;50.10
69980;BME280;57318;56.232;43.944;2022-09-17T15:12:17;98003.31;;;14.69;50.57
69980;BME280;57318;56.232;43.944;2022-09-17T15:14:45;98008.44;;;14.56;51.08
69980;BME280;57318;56.232;43.944;2022-09-17T15:17:16;98000.03;;;14.44;51.61
69980;BME280;57318;56.232;43.944;2022-09-17T15:19:51;98006.03;;;14.31;51.87
69980;BME280;57318;56.232;43.944;2022-09-17T15:22:25;97993.75;;;14.22;52.28
69980;BME280;57318;56.232;43.944;2022-09-17T15:24:58;97996.31;;;14.15;52.89
69980;BME280;57318;56.232;43.944;2022-09-17T15:27:38;97992.88;;;14.06;53.63
69980;BME280;57318;56.232;43.944;2022-09-17T15:32:36;97998.66;;;13.95;52.89
69980;BME280;57318;56.232;43.944;2022-09-17T15:37:49;97996.41;;;13.84;52.22
69980;BME280;57318;56.232;43.944;2022-09-17T15:42:51;97999.34;;;13.74;52.17
69980;BME280;57318;56.232;43.944;2022-09-17T15:45:21;98003.19;;;13.71;52.26
69980;BME280;57318;56.232;43.944;2022-09-17T15:50:23;98002.56;;;13.61;52.73
69980;BME280;57318;56.232;43.944;2022-09-17T15:52:56;97995.59;;;13.60;52.91
69980;BME280;57318;56.232;43.944;2022-09-17T15:55:32;98007.63;;;13.56;53.20
69980;BME280;57318;56.232;43.944;2022-09-17T15:58:00;98005.66;;;13.50;53.32
69980;BME280;57318;56.232;43.944;2022-09-17T16:00:27;98001.03;;;13.44;53.71
69980;BME280;57318;56.232;43.944;2022-09-17T16:02:53;98017.38;;;13.41;53.97
69980;BME280;57318;56.232;43.944;2022-09-17T16:07:52;98022.75;;;13.32;54.48
69980;BME280;57318;56.232;43.944;2022-09-17T16:10:18;98030.44;;;13.27;54.43